Elkridge, Maryland
Current Conditions -  °F | °C
As of 10:54 AM on Thursday 30 Oct 2014 (Local Time) from KBWI Reporting Station
Scattered Clouds Scattered Clouds  
Wind Chill: 55°   Ceiling: Unl
Heat Index: 55°   Visibility: 10mi
Dew Point: 40°   Wind: 10mph
Humidity: 57%   Direction: 330°NNW
Pressure: 30.06"   Gusts: 18mph
Location:  39.21°N, 76.73°W
Report Text: KBWI 301454Z 33009G16KT 10SM FEW050 SCT250 13/04 A3006 RMK AO2 SLP179 T01280044 51011
Loading
Personal Weather Stations






























Interactive Weather Map
Tropical Storm Tracking
New forecast layout! Learn more

10-Day Weather Forecast

Advertisements
Track Severe Weather on mobile